Schedule Details

Flight Number: ASX309X
Departure: Luxembourg Findel Airport (ELLX) at 12:00Z
Arrival: Gdansk im. Lecha Walesy (EPGD) at 14:00Z

Weather Information
ELLX 272250Z AUTO 04008KT 9999 NCD 18/13 Q1018 NOSIG
EPGD 272300Z 06004KT 020V110 CAVOK 16/15 Q1025

Schedule Frequency

Route Map